Time;durP1;ratioP1;P1;durP2;ratioP2;P2;SDS_P1;SDS_P2;PMS_P1;PMS_P2;Temp;Humidity;BMP_temperature;BMP_pressure;BME280_temperature;BME280_humidity;BME280_pressure;Samples;Min_cycle;Max_cycle;Signal;HPM_P1;HPM_P2
2021/04/18 00:01:43;;;;;;;13.68;2.45;;;;;;;;;;4986372;28;20158;-60
2021/04/18 00:04:10;;;;;;;15.73;2.63;;;;;;;;;;4989226;28;20159;-61
2021/04/18 00:06:40;;;;;;;10.23;2.30;;;;;;;;;;4988119;28;20504;-61
2021/04/18 00:09:10;;;;;;;10.85;2.30;;;;;;;;;;4987423;28;20675;-60
2021/04/18 00:11:38;;;;;;;9.70;2.63;;;;;;;;;;4983353;28;20027;-60
2021/04/18 00:14:06;;;;;;;12.18;2.30;;;;;;;;;;4974632;28;20494;-60
2021/04/18 00:16:34;;;;;;;9.68;2.45;;;;;;;;;;4978693;28;20041;-60
2021/04/18 00:19:01;;;;;;;7.75;2.20;;;;;;;;;;4980460;28;20054;-62
2021/04/18 00:21:28;;;;;;;13.88;2.10;;;;;;;;;;4980288;28;20030;-61
2021/04/18 00:23:56;;;;;;;8.32;2.22;;;;;;;;;;4982750;28;20023;-61
2021/04/18 00:26:23;;;;;;;18.33;2.55;;;;;;;;;;4979551;28;20073;-60
2021/04/18 00:28:50;;;;;;;16.95;2.83;;;;;;;;;;4981466;28;20030;-59
2021/04/18 00:31:17;;;;;;;20.95;2.65;;;;;;;;;;4976808;28;20065;-59
2021/04/18 00:33:44;;;;;;;14.93;2.47;;;;;;;;;;4983860;28;20030;-60
2021/04/18 00:36:12;;;;;;;14.18;1.77;;;;;;;;;;4981633;28;20084;-60
2021/04/18 00:38:48;;;;;;;22.27;2.33;;;;;;;;;;4979894;28;20054;-60
2021/04/18 00:41:16;;;;;;;15.75;2.55;;;;;;;;;;4978460;28;20482;-60
2021/04/18 00:43:44;;;;;;;15.45;2.30;;;;;;;;;;4975381;28;20485;-60
2021/04/18 00:46:11;;;;;;;19.85;2.00;;;;;;;;;;4981180;28;20018;-61
2021/04/18 00:48:42;;;;;;;13.75;2.10;;;;;;;;;;4989629;28;20030;-61
2021/04/18 00:51:10;;;;;;;7.05;1.90;;;;;;;;;;4990167;28;20027;-61
2021/04/18 00:53:37;;;;;;;10.77;1.90;;;;;;;;;;4983417;28;20113;-61
2021/04/18 00:56:05;;;;;;;9.00;1.98;;;;;;;;;;4991884;28;20026;-61
2021/04/18 00:58:33;;;;;;;9.10;1.48;;;;;;;;;;4989013;28;20405;-61
2021/04/18 01:01:00;;;;;;;7.80;1.60;;;;;;;;;;4989113;28;20490;-60
2021/04/18 01:03:27;;;;;;;7.40;2.17;;;;;;;;;;4984511;28;20022;-61
2021/04/18 01:05:54;;;;;;;12.45;1.60;;;;;;;;;;4990355;28;20110;-61
2021/04/18 01:08:21;;;;;;;16.65;1.77;;;;;;;;;;4990504;28;20033;-60
2021/04/18 01:10:49;;;;;;;12.15;1.40;;;;;;;;;;4987049;28;20121;-61
2021/04/18 01:13:16;;;;;;;5.25;1.15;;;;;;;;;;4983539;28;20026;-61
2021/04/18 01:15:43;;;;;;;4.22;1.00;;;;;;;;;;4986656;28;20023;-61
2021/04/18 01:18:10;;;;;;;4.93;1.20;;;;;;;;;;4989631;28;20018;-60
2021/04/18 01:20:37;;;;;;;9.75;1.20;;;;;;;;;;4986081;28;20089;-61
2021/04/18 01:23:04;;;;;;;12.80;1.17;;;;;;;;;;4984000;28;20451;-60
2021/04/18 01:25:31;;;;;;;4.07;0.77;;;;;;;;;;4973668;28;20406;-61
2021/04/18 01:27:58;;;;;;;8.13;1.30;;;;;;;;;;4962419;28;20039;-59
2021/04/18 01:30:30;;;;;;;7.93;1.27;;;;;;;;;;4976193;28;20038;-59
2021/04/18 01:32:58;;;;;;;11.43;1.42;;;;;;;;;;4977624;28;20033;-61
2021/04/18 01:35:25;;;;;;;5.43;0.90;;;;;;;;;;4978180;28;20077;-62
2021/04/18 01:37:53;;;;;;;8.18;1.08;;;;;;;;;;4989763;28;20022;-60
2021/04/18 01:40:21;;;;;;;9.60;0.95;;;;;;;;;;4986463;28;20150;-62
2021/04/18 01:42:49;;;;;;;3.25;0.93;;;;;;;;;;4983445;28;20014;-59
2021/04/18 01:45:19;;;;;;;5.90;0.85;;;;;;;;;;4980420;28;20038;-58
2021/04/18 01:47:47;;;;;;;4.72;1.00;;;;;;;;;;4960594;28;20036;-59
2021/04/18 01:50:17;;;;;;;3.03;0.90;;;;;;;;;;4954225;28;20534;-58
2021/04/18 01:52:45;;;;;;;4.15;0.88;;;;;;;;;;4980085;28;20039;-58
2021/04/18 01:55:12;;;;;;;5.45;1.02;;;;;;;;;;4982365;28;20023;-59
2021/04/18 01:57:40;;;;;;;6.95;1.05;;;;;;;;;;4987308;28;20359;-58
2021/04/18 02:00:09;;;;;;;5.53;0.90;;;;;;;;;;4984334;28;20030;-58
2021/04/18 02:02:43;;;;;;;6.93;0.98;;;;;;;;;;4955248;28;20058;-59
2021/04/18 02:05:11;;;;;;;7.03;0.90;;;;;;;;;;4968853;28;20026;-62
2021/04/18 02:07:40;;;;;;;4.00;0.80;;;;;;;;;;4989250;28;20092;-61
2021/04/18 02:10:08;;;;;;;5.00;0.77;;;;;;;;;;4985620;28;20105;-61
2021/04/18 02:12:36;;;;;;;2.63;0.60;;;;;;;;;;4973027;28;20398;-59
2021/04/18 02:15:05;;;;;;;5.80;0.68;;;;;;;;;;4968915;28;20097;-59
2021/04/18 02:17:32;;;;;;;5.45;0.85;;;;;;;;;;4968007;28;20019;-59
2021/04/18 02:19:59;;;;;;;4.40;0.90;;;;;;;;;;4988152;28;20056;-58
2021/04/18 02:22:27;;;;;;;5.03;0.68;;;;;;;;;;4956478;28;20482;-60
2021/04/18 02:24:54;;;;;;;4.63;0.80;;;;;;;;;;4982503;28;20034;-58
2021/04/18 02:27:25;;;;;;;2.20;0.60;;;;;;;;;;4986296;28;20046;-59
2021/04/18 02:29:54;;;;;;;6.22;0.70;;;;;;;;;;4990593;28;20034;-58
2021/04/18 02:32:22;;;;;;;8.30;0.68;;;;;;;;;;4990757;28;20105;-59
2021/04/18 02:34:51;;;;;;;5.45;0.70;;;;;;;;;;4972500;28;20125;-59
2021/04/18 02:37:20;;;;;;;2.42;0.75;;;;;;;;;;4991241;28;20061;-58
2021/04/18 02:39:48;;;;;;;4.82;0.80;;;;;;;;;;4990460;28;20042;-59
2021/04/18 02:42:17;;;;;;;2.55;0.88;;;;;;;;;;4990811;28;20077;-61
2021/04/18 02:44:46;;;;;;;2.35;0.80;;;;;;;;;;4985941;28;20101;-60
2021/04/18 02:47:15;;;;;;;3.75;1.13;;;;;;;;;;4991203;28;20037;-60
2021/04/18 02:49:42;;;;;;;2.10;0.70;;;;;;;;;;4990957;28;20018;-60
2021/04/18 02:52:11;;;;;;;4.95;0.98;;;;;;;;;;4990254;28;20057;-60
2021/04/18 02:54:39;;;;;;;2.65;0.73;;;;;;;;;;4989102;28;20030;-59
2021/04/18 02:57:07;;;;;;;1.92;0.70;;;;;;;;;;4994218;28;20031;-61
2021/04/18 02:59:34;;;;;;;4.50;0.80;;;;;;;;;;4994541;28;20030;-58
2021/04/18 03:02:02;;;;;;;2.92;0.65;;;;;;;;;;4994082;28;20042;-60
2021/04/18 03:04:30;;;;;;;4.28;0.68;;;;;;;;;;4989295;28;20394;-61
2021/04/18 03:06:58;;;;;;;3.58;0.80;;;;;;;;;;4994460;28;20018;-59
2021/04/18 03:09:26;;;;;;;4.57;0.70;;;;;;;;;;4993958;28;20097;-61
2021/04/18 03:11:54;;;;;;;6.28;0.60;;;;;;;;;;4993836;28;20493;-61
2021/04/18 03:14:25;;;;;;;5.32;0.70;;;;;;;;;;4989502;28;20030;-60
2021/04/18 03:16:52;;;;;;;1.50;0.60;;;;;;;;;;4993698;28;20073;-58
2021/04/18 03:19:20;;;;;;;2.08;0.57;;;;;;;;;;4993926;28;20034;-60
2021/04/18 03:21:48;;;;;;;4.35;0.82;;;;;;;;;;4992380;28;20474;-61
2021/04/18 03:24:19;;;;;;;2.13;0.70;;;;;;;;;;4988923;28;20038;-62
2021/04/18 03:26:47;;;;;;;3.25;0.52;;;;;;;;;;4976934;28;20046;-60
2021/04/18 03:29:15;;;;;;;1.75;0.50;;;;;;;;;;4992458;28;20496;-61
2021/04/18 03:31:43;;;;;;;8.35;0.60;;;;;;;;;;4993828;28;20026;-60
2021/04/18 03:34:10;;;;;;;3.13;0.80;;;;;;;;;;4978059;28;20108;-61
2021/04/18 03:36:37;;;;;;;3.10;0.90;;;;;;;;;;4992411;28;20505;-58
2021/04/18 03:39:05;;;;;;;2.08;0.88;;;;;;;;;;4994141;28;20034;-59
2021/04/18 03:41:33;;;;;;;4.35;0.80;;;;;;;;;;4993589;28;20025;-60
2021/04/18 03:44:00;;;;;;;3.63;1.35;;;;;;;;;;4994118;28;20034;-60
2021/04/18 03:46:27;;;;;;;6.47;0.75;;;;;;;;;;4989918;28;20022;-60
2021/04/18 03:48:54;;;;;;;2.97;0.90;;;;;;;;;;4994541;28;20061;-61
2021/04/18 03:51:22;;;;;;;4.60;0.80;;;;;;;;;;4994448;28;20018;-60
2021/04/18 03:53:49;;;;;;;4.57;0.93;;;;;;;;;;4976938;28;20031;-60
2021/04/18 03:56:16;;;;;;;4.93;0.90;;;;;;;;;;4989497;28;20030;-60
2021/04/18 03:58:48;;;;;;;11.18;0.85;;;;;;;;;;4977516;28;20441;-61
2021/04/18 04:01:16;;;;;;;4.87;0.73;;;;;;;;;;4994500;28;20025;-62
2021/04/18 04:03:43;;;;;;;2.95;0.70;;;;;;;;;;4993707;28;20429;-61
2021/04/18 04:06:10;;;;;;;4.35;1.25;;;;;;;;;;4988906;28;20077;-61
2021/04/18 04:08:38;;;;;;;13.77;0.88;;;;;;;;;;4981452;28;20033;-61
2021/04/18 04:11:05;;;;;;;7.00;1.23;;;;;;;;;;4976646;28;20431;-62
2021/04/18 04:13:32;;;;;;;2.88;0.90;;;;;;;;;;4993766;28;20022;-62
2021/04/18 04:15:59;;;;;;;5.20;1.05;;;;;;;;;;4989498;28;20027;-62
2021/04/18 04:18:26;;;;;;;3.97;1.10;;;;;;;;;;4993663;28;20023;-61
2021/04/18 04:20:53;;;;;;;3.80;1.00;;;;;;;;;;4994120;28;20497;-62
2021/04/18 04:23:20;;;;;;;5.40;1.15;;;;;;;;;;4993442;28;20026;-62
2021/04/18 04:25:47;;;;;;;3.30;1.00;;;;;;;;;;4990313;28;20043;-62
2021/04/18 04:28:15;;;;;;;4.57;1.08;;;;;;;;;;5013227;28;20030;-62
2021/04/18 04:30:42;;;;;;;2.63;0.88;;;;;;;;;;5013645;28;20033;-62
2021/04/18 04:33:09;;;;;;;3.20;1.00;;;;;;;;;;5013340;28;20022;-62
2021/04/18 04:35:39;;;;;;;5.78;1.00;;;;;;;;;;5009891;28;20111;-62
2021/04/18 04:38:06;;;;;;;4.45;0.95;;;;;;;;;;5009715;28;20053;-63
2021/04/18 04:40:34;;;;;;;1.95;0.90;;;;;;;;;;5013287;28;20038;-62
2021/04/18 04:43:01;;;;;;;2.15;0.82;;;;;;;;;;5013069;28;20523;-62
2021/04/18 04:45:28;;;;;;;2.75;0.93;;;;;;;;;;5012995;28;20080;-60
2021/04/18 04:47:55;;;;;;;3.70;0.90;;;;;;;;;;4994077;28;20026;-62
2021/04/18 04:50:22;;;;;;;4.78;1.00;;;;;;;;;;4976384;28;20026;-62
2021/04/18 04:52:49;;;;;;;5.10;0.90;;;;;;;;;;4993050;28;20019;-61
2021/04/18 04:55:20;;;;;;;3.05;0.85;;;;;;;;;;4993419;28;20077;-62
2021/04/18 04:57:47;;;;;;;1.45;0.85;;;;;;;;;;5003258;28;20029;-62
2021/04/18 05:00:15;;;;;;;5.40;0.93;;;;;;;;;;5012483;28;20034;-62
2021/04/18 05:02:42;;;;;;;4.65;0.85;;;;;;;;;;4995646;28;20100;-62
2021/04/18 05:05:09;;;;;;;2.85;0.80;;;;;;;;;;5012672;28;20359;-62
2021/04/18 05:07:36;;;;;;;2.53;0.70;;;;;;;;;;5005820;28;20072;-63
2021/04/18 05:10:04;;;;;;;2.17;0.93;;;;;;;;;;5012266;28;20025;-61
2021/04/18 05:12:31;;;;;;;2.22;1.05;;;;;;;;;;4995296;28;20400;-61
2021/04/18 05:14:58;;;;;;;1.95;0.80;;;;;;;;;;5012554;28;20030;-62
2021/04/18 05:17:25;;;;;;;2.28;0.90;;;;;;;;;;5004760;28;20014;-62
2021/04/18 05:19:53;;;;;;;2.40;0.98;;;;;;;;;;5012346;28;20092;-62
2021/04/18 05:22:20;;;;;;;2.63;1.00;;;;;;;;;;5012688;28;20022;-63
2021/04/18 05:24:47;;;;;;;2.55;0.90;;;;;;;;;;5012048;28;20025;-62
2021/04/18 05:27:14;;;;;;;3.63;0.88;;;;;;;;;;5003938;28;20128;-62
2021/04/18 05:29:41;;;;;;;3.13;1.10;;;;;;;;;;4975015;28;20027;-62
2021/04/18 05:32:08;;;;;;;4.65;1.30;;;;;;;;;;4992871;28;20018;-62
2021/04/18 05:34:35;;;;;;;1.15;0.80;;;;;;;;;;4975425;28;20061;-62
2021/04/18 05:37:04;;;;;;;1.80;0.85;;;;;;;;;;4990873;28;20668;-61
2021/04/18 05:39:31;;;;;;;2.70;0.90;;;;;;;;;;4990362;28;20038;-62
2021/04/18 05:41:58;;;;;;;1.63;1.00;;;;;;;;;;4992910;28;20025;-63
2021/04/18 05:44:25;;;;;;;3.28;0.85;;;;;;;;;;4992575;28;20055;-62
2021/04/18 05:46:52;;;;;;;1.25;0.80;;;;;;;;;;4992533;28;20011;-62
2021/04/18 05:49:19;;;;;;;5.93;1.00;;;;;;;;;;5004776;28;20029;-62
2021/04/18 05:51:46;;;;;;;1.45;0.90;;;;;;;;;;5011976;28;20104;-63
2021/04/18 05:54:13;;;;;;;2.50;0.85;;;;;;;;;;5012012;28;20507;-62
2021/04/18 05:56:40;;;;;;;3.80;1.00;;;;;;;;;;5012165;28;20026;-61
2021/04/18 05:59:07;;;;;;;1.10;0.90;;;;;;;;;;4996478;28;20125;-62
2021/04/18 06:01:34;;;;;;;2.38;1.00;;;;;;;;;;4992272;28;20030;-62
2021/04/18 06:04:01;;;;;;;3.10;0.90;;;;;;;;;;4992511;28;20026;-62
2021/04/18 06:06:28;;;;;;;0.95;0.70;;;;;;;;;;4992397;28;20040;-62
2021/04/18 06:08:56;;;;;;;2.70;0.98;;;;;;;;;;4995258;28;20481;-62
2021/04/18 06:11:23;;;;;;;3.17;0.80;;;;;;;;;;5012000;28;20033;-61
2021/04/18 06:13:50;;;;;;;2.03;0.95;;;;;;;;;;5012077;28;20029;-62
2021/04/18 06:16:17;;;;;;;2.00;0.88;;;;;;;;;;5011580;28;20026;-62
2021/04/18 06:18:44;;;;;;;2.92;0.95;;;;;;;;;;5006147;28;20029;-63
2021/04/18 06:21:11;;;;;;;3.17;0.88;;;;;;;;;;5011680;28;20075;-62
2021/04/18 06:23:38;;;;;;;2.72;0.90;;;;;;;;;;5011956;28;20018;-63
2021/04/18 06:26:05;;;;;;;2.40;0.88;;;;;;;;;;5011488;28;20054;-62
2021/04/18 06:28:32;;;;;;;1.60;0.90;;;;;;;;;;5005416;28;20128;-59
2021/04/18 06:30:59;;;;;;;2.72;0.75;;;;;;;;;;4978560;28;20026;-62
2021/04/18 06:33:26;;;;;;;2.58;1.20;;;;;;;;;;4996227;28;20038;-62
2021/04/18 06:35:54;;;;;;;2.03;1.20;;;;;;;;;;4995929;28;20022;-62
2021/04/18 06:38:21;;;;;;;3.00;0.90;;;;;;;;;;4995309;28;20473;-61
2021/04/18 06:40:51;;;;;;;3.10;0.73;;;;;;;;;;4993847;28;20117;-62
2021/04/18 06:43:20;;;;;;;3.65;1.33;;;;;;;;;;4995753;28;20041;-62
2021/04/18 06:45:49;;;;;;;2.05;0.85;;;;;;;;;;4995603;28;20030;-62
2021/04/18 06:48:17;;;;;;;2.42;1.00;;;;;;;;;;4995556;28;20019;-62
2021/04/18 06:50:44;;;;;;;3.53;0.80;;;;;;;;;;4991584;28;20026;-62
2021/04/18 06:53:11;;;;;;;1.52;0.90;;;;;;;;;;4995350;28;20097;-61
2021/04/18 06:55:38;;;;;;;2.25;0.77;;;;;;;;;;4995367;28;20371;-62
2021/04/18 06:58:05;;;;;;;3.70;0.90;;;;;;;;;;4995512;28;20025;-62
2021/04/18 07:00:33;;;;;;;2.33;1.00;;;;;;;;;;4994519;28;20037;-61
2021/04/18 07:03:18;;;;;;;3.05;0.80;;;;;;;;;;4995286;28;20429;-62
2021/04/18 07:05:46;;;;;;;1.40;0.82;;;;;;;;;;4995363;28;20031;-62
2021/04/18 07:08:29;;;;;;;2.25;0.70;;;;;;;;;;4995253;28;20022;-62
2021/04/18 07:11:14;;;;;;;1.88;0.85;;;;;;;;;;5004948;28;20080;-62
2021/04/18 07:13:42;;;;;;;2.22;1.00;;;;;;;;;;5014920;28;20044;-63
2021/04/18 07:16:25;;;;;;;3.03;0.80;;;;;;;;;;5014746;28;20026;-62
2021/04/18 07:18:53;;;;;;;2.53;0.82;;;;;;;;;;5014650;28;20029;-62
2021/04/18 07:21:21;;;;;;;2.58;1.23;;;;;;;;;;4994487;28;20441;-60
2021/04/18 07:23:48;;;;;;;1.58;1.00;;;;;;;;;;4994777;28;20617;-62
2021/04/18 07:26:24;;;;;;;2.10;0.88;;;;;;;;;;4977366;28;20486;-62
2021/04/18 07:28:52;;;;;;;1.52;1.10;;;;;;;;;;4994787;28;20867;-62
2021/04/18 07:31:30;;;;;;;1.45;0.73;;;;;;;;;;4990291;28;20050;-62
2021/04/18 07:34:15;;;;;;;2.85;1.00;;;;;;;;;;4994937;28;20054;-62
2021/04/18 07:36:44;;;;;;;2.17;0.90;;;;;;;;;;4995123;28;20389;-62
2021/04/18 07:39:12;;;;;;;1.17;0.80;;;;;;;;;;4994570;28;20432;-62
2021/04/18 07:41:41;;;;;;;1.30;0.68;;;;;;;;;;4990282;28;20027;-62
2021/04/18 07:44:08;;;;;;;2.08;1.08;;;;;;;;;;4994607;28;20026;-61
2021/04/18 07:46:35;;;;;;;2.25;0.70;;;;;;;;;;4994794;28;20462;-62
2021/04/18 07:49:03;;;;;;;1.88;0.90;;;;;;;;;;4994527;28;20034;-61
2021/04/18 07:51:30;;;;;;;3.38;1.00;;;;;;;;;;4990011;28;20026;-62
2021/04/18 07:53:57;;;;;;;1.50;0.98;;;;;;;;;;4994371;28;20397;-62
2021/04/18 07:56:24;;;;;;;1.77;0.77;;;;;;;;;;4994256;28;20018;-61
2021/04/18 07:58:51;;;;;;;3.30;0.70;;;;;;;;;;4994246;28;20061;-62
2021/04/18 08:01:18;;;;;;;1.77;0.80;;;;;;;;;;4989681;28;20029;-62
2021/04/18 08:03:46;;;;;;;1.98;0.70;;;;;;;;;;4994621;28;20109;-63
2021/04/18 08:06:13;;;;;;;0.70;0.52;;;;;;;;;;4994013;28;20022;-61
2021/04/18 08:08:48;;;;;;;1.85;1.00;;;;;;;;;;4994153;28;20018;-62
2021/04/18 08:11:16;;;;;;;1.33;0.68;;;;;;;;;;4989409;28;20035;-62
2021/04/18 08:13:47;;;;;;;1.10;0.75;;;;;;;;;;4994110;28;20355;-63
2021/04/18 08:16:15;;;;;;;2.03;0.70;;;;;;;;;;4993589;28;20034;-62
2021/04/18 08:18:45;;;;;;;4.07;1.00;;;;;;;;;;4993994;28;20149;-61
2021/04/18 08:21:23;;;;;;;1.30;0.68;;;;;;;;;;4989173;28;20149;-60
2021/04/18 08:23:51;;;;;;;1.50;1.00;;;;;;;;;;4994114;28;20038;-62
2021/04/18 08:26:19;;;;;;;1.48;0.80;;;;;;;;;;4998749;28;20041;-61
2021/04/18 08:28:52;;;;;;;18.42;1.58;;;;;;;;;;5013337;28;20026;-62
2021/04/18 08:31:20;;;;;;;14.45;1.52;;;;;;;;;;5006291;28;20542;-60
2021/04/18 08:33:51;;;;;;;4.38;0.80;;;;;;;;;;5005849;28;20019;-62
2021/04/18 08:36:18;;;;;;;4.93;1.05;;;;;;;;;;4993700;28;20023;-61
2021/04/18 08:38:46;;;;;;;7.63;0.70;;;;;;;;;;4993497;28;20113;-62
2021/04/18 08:41:15;;;;;;;2.78;1.10;;;;;;;;;;4992328;28;20033;-61
2021/04/18 08:43:43;;;;;;;2.67;1.02;;;;;;;;;;5009749;28;20034;-60
2021/04/18 08:46:10;;;;;;;4.50;1.00;;;;;;;;;;5013144;28;20045;-62
2021/04/18 08:48:38;;;;;;;3.33;1.05;;;;;;;;;;5000161;28;20030;-60
2021/04/18 08:51:09;;;;;;;2.95;0.75;;;;;;;;;;4992878;28;20022;-60
2021/04/18 08:53:55;;;;;;;1.98;0.85;;;;;;;;;;4997503;28;20049;-61
2021/04/18 08:56:22;;;;;;;3.55;1.20;;;;;;;;;;4993430;28;20156;-61
2021/04/18 08:58:50;;;;;;;2.58;0.93;;;;;;;;;;4993260;28;20035;-62
2021/04/18 09:01:18;;;;;;;2.88;0.80;;;;;;;;;;4993396;28;20552;-61
2021/04/18 09:03:58;;;;;;;3.13;0.90;;;;;;;;;;5001739;28;20030;-61
2021/04/18 09:06:35;;;;;;;1.67;0.70;;;;;;;;;;4995336;28;20014;-62
2021/04/18 09:09:06;;;;;;;1.85;0.80;;;;;;;;;;5012599;28;20056;-61
2021/04/18 09:11:39;;;;;;;1.42;0.70;;;;;;;;;;4992891;28;20026;-60
2021/04/18 09:14:06;;;;;;;2.35;0.75;;;;;;;;;;4989681;28;20025;-60
2021/04/18 09:16:34;;;;;;;5.75;1.02;;;;;;;;;;4993000;28;20034;-59
2021/04/18 09:19:19;;;;;;;2.67;1.00;;;;;;;;;;4992733;28;20066;-60
2021/04/18 09:22:06;;;;;;;2.97;0.98;;;;;;;;;;4992869;28;20030;-60
2021/04/18 09:24:34;;;;;;;3.92;0.90;;;;;;;;;;4989915;28;20478;-62
2021/04/18 09:27:15;;;;;;;3.42;0.80;;;;;;;;;;4991692;28;20057;-60
2021/04/18 09:29:55;;;;;;;2.10;0.80;;;;;;;;;;4992669;28;20497;-60
2021/04/18 09:32:23;;;;;;;4.05;0.90;;;;;;;;;;4991847;28;20101;-59
2021/04/18 09:34:51;;;;;;;1.98;0.90;;;;;;;;;;4989664;28;20034;-60
2021/04/18 09:37:23;;;;;;;2.30;1.00;;;;;;;;;;4992481;28;20015;-59
2021/04/18 09:39:52;;;;;;;3.53;0.93;;;;;;;;;;4992653;28;20425;-60
2021/04/18 09:42:20;;;;;;;2.42;0.95;;;;;;;;;;4992591;28;20018;-59
2021/04/18 09:44:49;;;;;;;9.57;0.75;;;;;;;;;;4984100;28;20098;-60
2021/04/18 09:47:27;;;;;;;2.63;0.75;;;;;;;;;;4992780;28;20022;-60
2021/04/18 09:49:55;;;;;;;3.88;0.88;;;;;;;;;;4992470;28;20026;-60
2021/04/18 09:52:25;;;;;;;2.90;0.85;;;;;;;;;;4992563;28;20097;-59
2021/04/18 09:54:52;;;;;;;2.70;0.90;;;;;;;;;;4987637;28;20054;-60
2021/04/18 09:57:26;;;;;;;2.70;0.90;;;;;;;;;;4992749;28;20018;-60
2021/04/18 10:00:05;;;;;;;1.83;0.77;;;;;;;;;;4992019;28;20078;-60
2021/04/18 10:02:32;;;;;;;1.90;0.82;;;;;;;;;;4993062;28;20022;-60
2021/04/18 10:05:13;;;;;;;2.45;1.05;;;;;;;;;;4985345;28;20033;-62
2021/04/18 10:07:41;;;;;;;3.35;1.13;;;;;;;;;;4996626;28;20046;-61
2021/04/18 10:10:08;;;;;;;2.10;0.85;;;;;;;;;;4995988;28;20445;-61
2021/04/18 10:12:51;;;;;;;1.45;0.93;;;;;;;;;;4996472;28;20023;-63
2021/04/18 10:15:19;;;;;;;1.30;0.75;;;;;;;;;;4992071;28;20378;-62
2021/04/18 10:17:46;;;;;;;2.97;0.80;;;;;;;;;;4995216;28;20449;-62
2021/04/18 10:20:22;;;;;;;1.77;0.90;;;;;;;;;;4995856;28;20038;-62
2021/04/18 10:23:02;;;;;;;1.48;0.80;;;;;;;;;;4995985;28;20111;-59
2021/04/18 10:25:29;;;;;;;2.90;0.93;;;;;;;;;;4991513;28;20029;-61
2021/04/18 10:27:56;;;;;;;2.42;0.88;;;;;;;;;;4996202;28;20569;-62
2021/04/18 10:30:24;;;;;;;1.50;0.80;;;;;;;;;;4995775;28;20730;-61
2021/04/18 10:32:51;;;;;;;2.33;0.90;;;;;;;;;;4995964;28;20027;-62
2021/04/18 10:35:18;;;;;;;1.95;0.77;;;;;;;;;;4991429;28;20023;-61
2021/04/18 10:37:46;;;;;;;1.48;0.90;;;;;;;;;;4996154;28;20482;-60
2021/04/18 10:40:14;;;;;;;1.98;0.95;;;;;;;;;;4995384;28;20434;-62
2021/04/18 10:42:41;;;;;;;1.30;0.77;;;;;;;;;;4995781;28;20065;-61
2021/04/18 10:45:09;;;;;;;2.35;0.88;;;;;;;;;;4990856;28;20026;-61
2021/04/18 10:47:36;;;;;;;5.05;0.93;;;;;;;;;;4995886;28;20022;-61
2021/04/18 10:50:04;;;;;;;2.15;0.82;;;;;;;;;;4995602;28;20076;-62
2021/04/18 10:52:32;;;;;;;2.00;0.70;;;;;;;;;;4995532;28;20470;-62
2021/04/18 10:54:59;;;;;;;2.83;0.88;;;;;;;;;;4990782;28;20113;-61
2021/04/18 10:57:27;;;;;;;5.53;0.90;;;;;;;;;;4996025;28;20085;-62
2021/04/18 10:59:54;;;;;;;1.83;0.70;;;;;;;;;;4995149;28;20026;-62
2021/04/18 11:02:22;;;;;;;3.90;1.00;;;;;;;;;;4995561;28;20026;-62
2021/04/18 11:04:49;;;;;;;1.60;0.73;;;;;;;;;;4992686;28;20030;-60
2021/04/18 11:07:16;;;;;;;1.15;0.65;;;;;;;;;;4993768;28;20021;-61
2021/04/18 11:09:43;;;;;;;3.22;0.73;;;;;;;;;;4995494;28;20525;-63
2021/04/18 11:12:16;;;;;;;2.35;0.90;;;;;;;;;;4981988;28;20065;-61
2021/04/18 11:14:43;;;;;;;2.78;0.90;;;;;;;;;;4978220;28;20363;-60
2021/04/18 11:17:10;;;;;;;1.38;0.68;;;;;;;;;;4984287;28;20301;-60
2021/04/18 12:11:24;;;;;;;4.78;1.27;;;;;;;;;;5133586;27;20360;-59
2021/04/18 12:13:52;;;;;;;5.28;1.20;;;;;;;;;;5108984;28;20502;-60
2021/04/18 12:16:19;;;;;;;2.38;1.20;;;;;;;;;;5112766;28;20471;-58
2021/04/18 12:18:46;;;;;;;4.90;1.40;;;;;;;;;;5112574;28;20387;-58
2021/04/18 12:21:13;;;;;;;5.05;1.17;;;;;;;;;;5110264;28;20529;-60
2021/04/18 12:23:40;;;;;;;3.17;1.30;;;;;;;;;;5109104;28;20118;-60
2021/04/18 12:26:07;;;;;;;4.68;1.23;;;;;;;;;;5111143;28;20495;-60
2021/04/18 12:28:34;;;;;;;3.95;1.30;;;;;;;;;;5116491;28;20024;-60
2021/04/18 12:31:01;;;;;;;6.22;1.15;;;;;;;;;;5111380;28;20023;-58
2021/04/18 12:33:28;;;;;;;7.68;1.42;;;;;;;;;;5091358;27;20031;-58
2021/04/18 12:35:56;;;;;;;3.00;1.38;;;;;;;;;;5119935;27;21196;-59
2021/04/18 12:38:23;;;;;;;3.97;1.30;;;;;;;;;;5118003;28;20391;-58
2021/04/18 12:40:50;;;;;;;5.65;1.45;;;;;;;;;;5102369;28;20055;-60
2021/04/18 12:43:17;;;;;;;4.43;1.30;;;;;;;;;;5111914;28;20032;-59
2021/04/18 12:45:45;;;;;;;4.55;1.20;;;;;;;;;;5117199;27;20084;-60
2021/04/18 12:48:12;;;;;;;4.18;1.23;;;;;;;;;;5115223;27;20102;-64
2021/04/18 12:50:39;;;;;;;5.57;1.45;;;;;;;;;;5113965;28;20098;-64
2021/04/18 12:53:06;;;;;;;8.05;1.35;;;;;;;;;;5109923;27;20039;-62
2021/04/18 12:55:33;;;;;;;5.25;1.52;;;;;;;;;;5118907;27;20026;-64
2021/04/18 12:58:00;;;;;;;6.78;1.42;;;;;;;;;;5115144;28;20459;-63
2021/04/18 13:00:27;;;;;;;4.70;1.42;;;;;;;;;;5110160;28;20482;-62
2021/04/18 13:02:59;;;;;;;3.47;1.45;;;;;;;;;;5104956;28;20455;-60
2021/04/18 13:05:26;;;;;;;4.90;1.40;;;;;;;;;;5099598;28;20042;-63
2021/04/18 13:07:53;;;;;;;3.45;1.45;;;;;;;;;;5100646;28;20472;-62
2021/04/18 13:10:22;;;;;;;2.75;1.15;;;;;;;;;;5088839;28;20102;-64
2021/04/18 13:12:49;;;;;;;5.30;1.50;;;;;;;;;;5088195;28;20082;-62
2021/04/18 13:15:17;;;;;;;8.18;1.50;;;;;;;;;;5081520;28;20036;-62
2021/04/18 13:17:45;;;;;;;6.35;1.50;;;;;;;;;;5093662;28;20410;-64
2021/04/18 13:20:12;;;;;;;3.75;1.42;;;;;;;;;;5083609;28;20025;-64
2021/04/18 13:22:40;;;;;;;8.63;1.45;;;;;;;;;;5077284;28;20082;-63
2021/04/18 13:25:08;;;;;;;3.97;1.10;;;;;;;;;;5089825;28;20375;-64
2021/04/18 13:27:35;;;;;;;4.45;1.27;;;;;;;;;;5088376;28;20044;-63
2021/04/18 14:16:38;;;;;;;4.57;1.30;;;;;;;;;;5092556;27;20439;-64
2021/04/18 14:19:05;;;;;;;3.58;1.45;;;;;;;;;;5086341;28;20426;-62
2021/04/18 14:21:32;;;;;;;3.28;1.48;;;;;;;;;;5095039;28;20044;-62
2021/04/18 14:23:59;;;;;;;7.72;1.48;;;;;;;;;;5093737;28;20024;-62
2021/04/18 14:26:26;;;;;;;4.85;1.52;;;;;;;;;;5097010;28;20390;-62
2021/04/18 14:28:53;;;;;;;4.03;1.70;;;;;;;;;;5094181;28;20082;-62
2021/04/18 14:31:20;;;;;;;3.85;1.63;;;;;;;;;;5096400;28;20086;-63
2021/04/18 14:33:47;;;;;;;7.03;1.70;;;;;;;;;;5091958;28;20487;-60
2021/04/18 14:36:14;;;;;;;3.33;1.40;;;;;;;;;;5097119;28;20028;-60
2021/04/18 14:38:41;;;;;;;3.38;1.45;;;;;;;;;;5086573;28;20028;-62
2021/04/18 14:41:08;;;;;;;4.97;1.52;;;;;;;;;;5093998;28;20444;-61
2021/04/18 14:43:35;;;;;;;6.18;1.80;;;;;;;;;;5077722;28;20024;-62
2021/04/18 14:46:02;;;;;;;5.13;1.55;;;;;;;;;;5083397;28;20032;-61
2021/04/18 14:48:29;;;;;;;4.72;1.48;;;;;;;;;;5082176;28;20032;-60
2021/04/18 14:50:59;;;;;;;3.63;1.85;;;;;;;;;;5076741;28;20448;-60
2021/04/18 14:53:27;;;;;;;2.55;1.38;;;;;;;;;;5084303;28;20027;-63
2021/04/18 14:55:54;;;;;;;4.68;1.60;;;;;;;;;;5079231;28;20097;-60
2021/04/18 14:58:21;;;;;;;2.50;1.30;;;;;;;;;;5087969;28;20039;-62
2021/04/18 15:00:48;;;;;;;4.15;1.60;;;;;;;;;;5088728;28;20020;-62
2021/04/18 15:03:15;;;;;;;7.50;1.50;;;;;;;;;;5080560;28;20032;-61
2021/04/18 15:05:42;;;;;;;2.65;1.10;;;;;;;;;;5083686;28;20043;-61
2021/04/18 15:08:09;;;;;;;4.07;2.03;;;;;;;;;;5084503;28;20082;-60
2021/04/18 15:10:36;;;;;;;3.85;1.75;;;;;;;;;;5072474;28;20051;-60
2021/04/18 15:13:03;;;;;;;4.22;1.25;;;;;;;;;;5075637;28;20388;-61
2021/04/18 15:15:30;;;;;;;4.78;1.40;;;;;;;;;;5077589;28;20182;-61
2021/04/18 15:17:58;;;;;;;5.22;1.50;;;;;;;;;;5063265;28;20083;-63
2021/04/18 15:20:28;;;;;;;4.85;1.63;;;;;;;;;;5078735;28;20107;-62
2021/04/18 15:22:56;;;;;;;3.88;1.45;;;;;;;;;;5068990;28;20491;-61
2021/04/18 15:25:23;;;;;;;3.92;1.60;;;;;;;;;;5060023;28;20097;-62
2021/04/18 15:27:50;;;;;;;7.70;1.63;;;;;;;;;;5074506;28;20020;-62
2021/04/18 15:30:19;;;;;;;6.97;1.90;;;;;;;;;;5067603;28;20013;-61
2021/04/18 15:32:46;;;;;;;8.05;1.85;;;;;;;;;;5059049;28;20059;-62
2021/04/18 15:35:15;;;;;;;4.43;2.08;;;;;;;;;;5072031;28;20464;-62
2021/04/18 15:37:42;;;;;;;3.67;1.95;;;;;;;;;;5075004;28;20032;-63
2021/04/18 15:40:09;;;;;;;5.75;2.08;;;;;;;;;;5068459;28;20024;-64
2021/04/18 15:42:36;;;;;;;7.03;2.78;;;;;;;;;;5082053;28;20013;-64
2021/04/18 15:45:04;;;;;;;8.90;2.33;;;;;;;;;;5067023;28;20036;-59
2021/04/18 15:47:31;;;;;;;11.95;2.33;;;;;;;;;;5077756;28;20020;-60
2021/04/18 15:49:58;;;;;;;8.95;3.00;;;;;;;;;;5063155;28;20031;-61
2021/04/18 15:52:25;;;;;;;6.85;2.60;;;;;;;;;;5071870;28;20047;-63
2021/04/18 15:54:52;;;;;;;10.30;3.25;;;;;;;;;;5055910;28;20417;-61
2021/04/18 15:57:19;;;;;;;15.00;3.63;;;;;;;;;;5066850;28;20012;-61
2021/04/18 15:59:46;;;;;;;10.63;3.30;;;;;;;;;;5062018;28;20064;-60
2021/04/18 16:02:14;;;;;;;18.27;3.75;;;;;;;;;;5059398;28;20017;-61
2021/04/18 16:04:41;;;;;;;11.38;4.40;;;;;;;;;;5062882;28;20079;-62
2021/04/18 16:07:08;;;;;;;14.82;4.57;;;;;;;;;;5067958;28;20037;-60
2021/04/18 16:09:36;;;;;;;11.50;4.55;;;;;;;;;;5060854;28;20400;-61
2021/04/18 16:12:03;;;;;;;17.45;5.10;;;;;;;;;;5066002;28;20103;-61
2021/04/18 16:14:31;;;;;;;15.38;4.97;;;;;;;;;;5068311;28;20075;-61
2021/04/18 16:16:58;;;;;;;15.57;5.85;;;;;;;;;;5069019;28;20031;-60
2021/04/18 16:19:25;;;;;;;17.83;5.13;;;;;;;;;;5076361;28;20044;-60
2021/04/18 16:21:55;;;;;;;20.85;5.68;;;;;;;;;;5078284;28;20023;-61
2021/04/18 16:24:24;;;;;;;24.45;5.47;;;;;;;;;;5074213;28;20052;-61
2021/04/18 16:26:51;;;;;;;13.95;4.55;;;;;;;;;;5070165;28;20083;-61